Time;durP1;ratioP1;P1;durP2;ratioP2;P2;SDS_P1;SDS_P2;PMS_P1;PMS_P2;Temp;Humidity;BMP_temperature;BMP_pressure;BME280_temperature;BME280_humidity;BME280_pressure;Samples;Min_cycle;Max_cycle;Signal;HPM_P1;HPM_P2
2021/07/22 00:01:20;;;;;;;;;;;;;;;28.18;39.16;97857.53;5046601;28;1579;-51
2021/07/22 00:03:45;;;;;;;;;;;;;;;28.36;38.49;97856.03;5050740;28;1961;-51
2021/07/22 00:06:10;;;;;;;;;;;;;;;28.21;39.16;97857.31;5049716;28;1132;-51
2021/07/22 00:08:35;;;;;;;;;;;;;;;28.27;38.87;97846.16;5075886;22;1924;-93
2021/07/22 00:11:01;;;;;;;;;;;;;;;28.26;38.85;97852.44;5038077;28;1977;-92
2021/07/22 00:13:26;;;;;;;;;;;;;;;28.17;39.21;97855.88;5045476;28;1516;-95
2021/07/22 00:15:51;;;;;;;;;;;;;;;28.22;39.01;97861.63;5021133;28;1133;-92
2021/07/22 00:18:16;;;;;;;;;;;;;;;28.28;38.90;97855.78;5020521;28;1050;-93
2021/07/22 00:20:42;;;;;;;;;;;;;;;28.31;38.75;97851.09;5013920;28;1657;-93
2021/07/22 00:23:09;;;;;;;;;;;;;;;28.29;38.73;97857.47;4996742;28;1965;-93
2021/07/22 00:25:34;;;;;;;;;;;;;;;28.23;38.86;97853.53;5006561;23;3784;-51
2021/07/22 00:27:59;;;;;;;;;;;;;;;28.23;38.99;97848.22;4990059;28;1487;-51
2021/07/22 00:30:24;;;;;;;;;;;;;;;28.39;38.47;97855.75;4990073;28;1229;-51
2021/07/22 00:32:49;;;;;;;;;;;;;;;28.24;38.77;97851.72;4987851;28;1415;-49
2021/07/22 00:35:15;;;;;;;;;;;;;;;28.32;38.66;97851.94;4990102;28;1560;-50
2021/07/22 00:37:40;;;;;;;;;;;;;;;28.27;38.55;97854.09;5018422;23;3703;-53
2021/07/22 00:40:05;;;;;;;;;;;;;;;28.25;38.93;97854.22;5026635;28;1675;-53
2021/07/22 00:42:50;;;;;;;;;;;;;;;28.22;38.79;97857.16;5029264;28;1906;-51
2021/07/22 00:45:16;;;;;;;;;;;;;;;28.28;38.93;97853.13;5029858;28;1950;-52
2021/07/22 00:47:41;;;;;;;;;;;;;;;28.21;38.95;97844.03;5028030;28;1573;-53
2021/07/22 00:50:06;;;;;;;;;;;;;;;28.27;38.91;97848.78;5028910;28;1141;-53
2021/07/22 00:52:31;;;;;;;;;;;;;;;28.16;38.71;97848.88;5028454;28;1473;-51
2021/07/22 00:54:56;;;;;;;;;;;;;;;28.13;38.91;97849.16;5029278;28;1655;-52
2021/07/22 00:57:22;;;;;;;;;;;;;;;28.24;38.87;97849.06;5026651;28;1453;-52
2021/07/22 00:59:47;;;;;;;;;;;;;;;28.29;38.55;97844.22;5026704;28;956;-52
2021/07/22 01:02:12;;;;;;;;;;;;;;;28.26;38.84;97847.13;5024136;28;1981;-53
2021/07/22 01:04:37;;;;;;;;;;;;;;;28.16;39.00;97840.94;5026435;28;1577;-53
2021/07/22 01:07:03;;;;;;;;;;;;;;;28.20;38.89;97844.97;5028374;28;1278;-53
2021/07/22 01:09:28;;;;;;;;;;;;;;;28.22;38.77;97845.72;5029242;28;1298;-53
2021/07/22 01:11:53;;;;;;;;;;;;;;;28.35;38.64;97833.09;5029787;28;2108;-51
2021/07/22 01:14:18;;;;;;;;;;;;;;;28.14;39.17;97842.88;5029089;28;1250;-53
2021/07/22 01:16:43;;;;;;;;;;;;;;;28.11;39.20;97841.31;5030019;28;1497;-53
2021/07/22 01:19:09;;;;;;;;;;;;;;;28.17;38.67;97842.59;5027191;28;1629;-52
2021/07/22 01:21:34;;;;;;;;;;;;;;;28.19;38.58;97845.97;5030098;28;1034;-53
2021/07/22 01:23:59;;;;;;;;;;;;;;;28.17;39.02;97851.41;5029460;28;2321;-53
2021/07/22 01:26:24;;;;;;;;;;;;;;;28.21;38.70;97844.88;5028502;28;1641;-53
2021/07/22 01:28:49;;;;;;;;;;;;;;;28.20;38.82;97848.50;5026014;28;1568;-51
2021/07/22 01:31:15;;;;;;;;;;;;;;;28.24;38.76;97849.06;5026071;28;1703;-53
2021/07/22 01:33:40;;;;;;;;;;;;;;;28.09;39.01;97841.44;5028311;28;1568;-53
2021/07/22 01:36:05;;;;;;;;;;;;;;;28.18;38.69;97842.47;5028943;28;1178;-52
2021/07/22 01:38:30;;;;;;;;;;;;;;;28.31;38.72;97839.66;5026687;28;1526;-51
2021/07/22 01:40:55;;;;;;;;;;;;;;;28.20;38.65;97842.34;5028455;28;1715;-53
2021/07/22 01:43:20;;;;;;;;;;;;;;;28.22;38.79;97845.72;5028480;28;1993;-53
2021/07/22 01:45:46;;;;;;;;;;;;;;;28.14;38.91;97849.03;5029387;28;1185;-53
2021/07/22 01:48:11;;;;;;;;;;;;;;;28.21;38.97;97844.03;5028153;28;2163;-54
2021/07/22 01:50:36;;;;;;;;;;;;;;;28.26;38.73;97845.31;5028750;28;1436;-53
2021/07/22 01:53:02;;;;;;;;;;;;;;;28.20;38.87;97837.03;5029115;28;1239;-50
2021/07/22 01:55:27;;;;;;;;;;;;;;;28.22;38.92;97838.59;5027271;28;1577;-52
2021/07/22 01:57:55;;;;;;;;;;;;;;;28.28;38.43;97838.09;5031121;28;1320;-52
2021/07/22 02:00:21;;;;;;;;;;;;;;;28.17;39.04;97837.28;5030607;28;982;-54
2021/07/22 02:02:46;;;;;;;;;;;;;;;28.27;38.54;97832.88;5032719;28;1963;-53
2021/07/22 02:05:11;;;;;;;;;;;;;;;28.29;38.57;97828.31;5028941;28;1688;-51
2021/07/22 02:07:36;;;;;;;;;;;;;;;28.27;38.67;97828.41;5033440;28;1326;-53
2021/07/22 02:10:02;;;;;;;;;;;;;;;28.29;38.65;97825.66;5030120;28;1660;-53
2021/07/22 02:12:27;;;;;;;;;;;;;;;28.30;38.48;97827.38;5032459;28;1397;-52
2021/07/22 02:14:52;;;;;;;;;;;;;;;28.35;38.32;97825.97;5032452;28;1089;-51
2021/07/22 02:17:18;;;;;;;;;;;;;;;28.32;38.50;97826.25;5024935;28;1811;-53
2021/07/22 02:19:43;;;;;;;;;;;;;;;28.25;38.80;97822.41;5032310;28;1212;-51
2021/07/22 02:22:09;;;;;;;;;;;;;;;28.20;38.77;97829.06;5031328;28;1898;-53
2021/07/22 02:24:34;;;;;;;;;;;;;;;28.28;38.42;97829.25;5030159;28;1641;-53
2021/07/22 02:27:01;;;;;;;;;;;;;;;28.24;38.55;97831.34;5031858;28;1912;-53
2021/07/22 02:29:26;;;;;;;;;;;;;;;28.10;38.70;97832.50;5030419;28;1553;-53
2021/07/22 02:31:51;;;;;;;;;;;;;;;28.15;38.53;97831.28;5032105;28;1162;-52
2021/07/22 02:34:17;;;;;;;;;;;;;;;28.18;38.90;97836.31;5031548;28;1208;-52
2021/07/22 02:36:42;;;;;;;;;;;;;;;28.16;39.02;97841.75;5030210;28;1553;-53
2021/07/22 02:39:07;;;;;;;;;;;;;;;28.18;38.80;97833.69;5032544;28;1193;-51
2021/07/22 02:41:32;;;;;;;;;;;;;;;28.12;39.00;97832.38;5029818;28;1592;-52
2021/07/22 02:43:58;;;;;;;;;;;;;;;28.17;38.94;97846.09;5030421;28;1973;-51
2021/07/22 02:46:23;;;;;;;;;;;;;;;28.25;38.72;97840.97;5028801;28;1650;-51
2021/07/22 02:48:48;;;;;;;;;;;;;;;28.07;39.20;97839.91;5029796;28;1372;-52
2021/07/22 02:51:13;;;;;;;;;;;;;;;28.15;38.84;97831.28;5031958;28;1525;-52
2021/07/22 02:53:38;;;;;;;;;;;;;;;28.22;38.51;97832.47;5029888;28;1625;-51
2021/07/22 02:56:04;;;;;;;;;;;;;;;28.21;38.75;97831.63;5030195;28;1651;-53
2021/07/22 02:58:30;;;;;;;;;;;;;;;28.19;38.63;97827.41;5031701;28;1357;-53
2021/07/22 03:00:55;;;;;;;;;;;;;;;28.15;38.94;97834.78;5032267;28;1010;-51
2021/07/22 03:03:20;;;;;;;;;;;;;;;28.27;38.56;97831.06;5030170;28;1914;-53
2021/07/22 03:05:45;;;;;;;;;;;;;;;28.05;38.79;97841.84;5031515;28;1802;-53
2021/07/22 03:08:11;;;;;;;;;;;;;;;28.16;38.86;97835.63;5029328;28;1674;-52
2021/07/22 03:10:36;;;;;;;;;;;;;;;28.25;38.52;97832.19;5031356;28;1624;-51
2021/07/22 03:13:01;;;;;;;;;;;;;;;28.16;38.66;97846.22;5031321;28;1154;-53
2021/07/22 03:15:26;;;;;;;;;;;;;;;28.25;38.63;97846.28;5031472;28;1237;-52
2021/07/22 03:17:51;;;;;;;;;;;;;;;28.25;38.61;97850.75;5028011;28;1627;-54
2021/07/22 03:20:17;;;;;;;;;;;;;;;28.14;38.84;97837.56;5032190;28;1252;-53
2021/07/22 03:22:42;;;;;;;;;;;;;;;28.04;39.14;97848.09;5030310;28;1921;-54
2021/07/22 03:25:07;;;;;;;;;;;;;;;28.05;38.66;97857.75;5029574;28;1565;-50
2021/07/22 03:27:32;;;;;;;;;;;;;;;28.17;38.75;97858.50;5030597;28;1470;-51
2021/07/22 03:29:58;;;;;;;;;;;;;;;28.27;38.14;97854.94;5031753;28;1177;-53
2021/07/22 03:32:23;;;;;;;;;;;;;;;28.18;38.70;97854.88;5029357;28;1601;-52
2021/07/22 03:34:48;;;;;;;;;;;;;;;28.13;38.90;97851.81;5032443;28;1165;-50
2021/07/22 03:37:14;;;;;;;;;;;;;;;28.23;38.37;97855.34;5030445;28;1384;-52
2021/07/22 03:39:39;;;;;;;;;;;;;;;28.18;38.37;97861.03;5030726;28;1660;-53
2021/07/22 03:42:04;;;;;;;;;;;;;;;28.09;38.68;97853.84;5030442;28;1362;-51
2021/07/22 03:44:30;;;;;;;;;;;;;;;28.05;39.00;97855.09;5030564;28;1921;-52
2021/07/22 03:46:55;;;;;;;;;;;;;;;28.23;38.66;97850.88;5029482;28;1876;-51
2021/07/22 03:49:20;;;;;;;;;;;;;;;28.11;38.82;97849.25;5029986;28;1668;-53
2021/07/22 03:51:45;;;;;;;;;;;;;;;28.09;38.95;97853.84;5029380;28;1480;-53
2021/07/22 03:54:11;;;;;;;;;;;;;;;28.10;38.94;97856.38;5031308;28;1157;-51
2021/07/22 03:56:36;;;;;;;;;;;;;;;28.15;38.54;97857.81;5028779;28;1586;-52
2021/07/22 03:59:01;;;;;;;;;;;;;;;28.14;38.67;97856.13;5030388;28;1451;-53
2021/07/22 04:01:26;;;;;;;;;;;;;;;28.22;38.50;97854.50;5030009;28;1329;-53
2021/07/22 04:03:55;;;;;;;;;;;;;;;28.16;38.38;97860.31;5028221;28;1910;-53
2021/07/22 04:06:20;;;;;;;;;;;;;;;28.13;38.37;97854.47;5028613;28;1141;-52
2021/07/22 04:08:45;;;;;;;;;;;;;;;28.01;38.90;97856.31;5029733;28;1417;-53
2021/07/22 04:11:10;;;;;;;;;;;;;;;28.04;38.90;97864.00;5029563;28;1601;-52
2021/07/22 04:13:36;;;;;;;;;;;;;;;28.07;38.52;97861.94;5030596;28;1173;-53
2021/07/22 04:16:02;;;;;;;;;;;;;;;28.16;38.65;97856.84;5030477;28;1464;-53
2021/07/22 04:18:27;;;;;;;;;;;;;;;28.11;38.69;97862.50;5030468;28;1589;-53
2021/07/22 04:20:52;;;;;;;;;;;;;;;28.10;38.57;97860.84;5029207;28;1306;-51
2021/07/22 04:23:17;;;;;;;;;;;;;;;28.14;38.78;97867.59;5030373;28;1965;-52
2021/07/22 04:25:42;;;;;;;;;;;;;;;27.96;39.15;97856.69;5027342;28;1573;-52
2021/07/22 04:28:08;;;;;;;;;;;;;;;28.11;38.85;97867.81;5027181;28;1537;-53
2021/07/22 04:30:33;;;;;;;;;;;;;;;28.16;38.72;97867.44;5030024;28;1141;-50
2021/07/22 04:32:58;;;;;;;;;;;;;;;28.20;38.45;97864.41;5029329;28;1240;-54
2021/07/22 04:35:23;;;;;;;;;;;;;;;28.09;38.67;97870.59;5028096;28;1558;-53
2021/07/22 04:37:48;;;;;;;;;;;;;;;28.07;38.43;97871.72;5029144;28;1298;-52
2021/07/22 04:40:14;;;;;;;;;;;;;;;28.03;38.93;97878.22;5027362;28;1664;-51
2021/07/22 04:42:39;;;;;;;;;;;;;;;28.07;38.64;97871.72;5029867;28;1914;-53
2021/07/22 04:45:04;;;;;;;;;;;;;;;27.96;38.67;97869.94;5029270;28;1446;-53
2021/07/22 04:47:30;;;;;;;;;;;;;;;28.13;38.60;97873.84;5030517;28;1296;-53
2021/07/22 04:49:55;;;;;;;;;;;;;;;28.15;38.29;97874.56;5028876;28;1648;-53
2021/07/22 04:52:20;;;;;;;;;;;;;;;28.15;38.65;97871.91;5024948;28;1568;-50
2021/07/22 04:54:45;;;;;;;;;;;;;;;28.09;38.36;97878.56;5028304;28;1557;-52
2021/07/22 04:57:10;;;;;;;;;;;;;;;28.14;38.59;97885.31;5029268;28;1380;-52
2021/07/22 04:59:36;;;;;;;;;;;;;;;28.14;38.58;97880.84;5028813;28;1482;-50
2021/07/22 05:02:01;;;;;;;;;;;;;;;28.11;38.56;97886.38;5027826;28;1460;-52
2021/07/22 05:04:26;;;;;;;;;;;;;;;28.10;38.78;97874.94;5028588;28;2076;-53
2021/07/22 05:06:51;;;;;;;;;;;;;;;28.22;38.19;97882.84;5026037;28;1657;-52
2021/07/22 05:09:16;;;;;;;;;;;;;;;28.10;38.62;97888.19;5029251;28;1240;-53
2021/07/22 05:11:42;;;;;;;;;;;;;;;28.03;38.80;97883.53;5026866;28;1628;-51
2021/07/22 05:14:07;;;;;;;;;;;;;;;28.12;38.69;97881.91;5029903;28;1169;-52
2021/07/22 05:16:33;;;;;;;;;;;;;;;28.07;38.88;97891.13;5028130;28;1413;-53
2021/07/22 05:18:58;;;;;;;;;;;;;;;28.08;38.68;97879.53;5028891;28;1164;-53
2021/07/22 05:21:23;;;;;;;;;;;;;;;28.19;38.57;97883.91;5026746;28;1593;-53
2021/07/22 05:23:49;;;;;;;;;;;;;;;28.22;38.48;97888.16;5028701;28;1971;-53
2021/07/22 05:26:16;;;;;;;;;;;;;;;28.03;38.57;97881.72;5028806;28;1553;-53
2021/07/22 05:28:41;;;;;;;;;;;;;;;28.18;38.20;97876.94;5028904;28;1473;-51
2021/07/22 05:31:06;;;;;;;;;;;;;;;28.14;38.52;97875.53;5030530;28;1161;-52
2021/07/22 05:33:32;;;;;;;;;;;;;;;28.05;38.79;97878.97;5031993;28;1579;-53
2021/07/22 05:36:00;;;;;;;;;;;;;;;28.12;38.55;97879.25;5034070;28;1181;-52
2021/07/22 05:38:25;;;;;;;;;;;;;;;28.15;38.44;97876.38;5033254;28;1443;-51
2021/07/22 05:40:50;;;;;;;;;;;;;;;28.08;38.49;97879.53;5032582;28;1545;-53
2021/07/22 05:43:15;;;;;;;;;;;;;;;28.09;38.69;97883.03;5031130;28;1971;-52
2021/07/22 05:45:41;;;;;;;;;;;;;;;27.99;38.85;97882.97;5033184;28;1173;-53
2021/07/22 05:48:06;;;;;;;;;;;;;;;28.08;38.60;97884.84;5030797;28;1437;-53
2021/07/22 05:50:31;;;;;;;;;;;;;;;28.12;38.59;97874.81;5032904;28;1589;-52
2021/07/22 05:52:57;;;;;;;;;;;;;;;28.18;38.41;97884.06;5032396;28;1090;-52
2021/07/22 05:55:22;;;;;;;;;;;;;;;28.22;38.41;97888.16;5033123;28;1573;-52
2021/07/22 05:57:47;;;;;;;;;;;;;;;28.19;38.49;97881.28;5031588;28;1436;-52
2021/07/22 06:00:13;;;;;;;;;;;;;;;28.17;38.50;97879.72;5033607;28;1168;-53
2021/07/22 06:02:38;;;;;;;;;;;;;;;28.08;38.45;97868.09;5028979;28;2023;-50
2021/07/22 06:05:05;;;;;;;;;;;;;;;28.18;38.39;97881.41;5032502;28;1117;-53
2021/07/22 06:07:30;;;;;;;;;;;;;;;28.10;38.22;97877.59;5031609;28;1417;-54
2021/07/22 06:09:55;;;;;;;;;;;;;;;28.11;38.47;97870.47;5031556;28;1494;-52
2021/07/22 06:12:21;;;;;;;;;;;;;;;28.07;38.46;97875.19;5031863;28;1223;-53
2021/07/22 06:14:47;;;;;;;;;;;;;;;28.12;38.46;97877.44;5033096;28;1244;-50
2021/07/22 06:17:12;;;;;;;;;;;;;;;28.08;38.70;97876.03;5030072;28;1268;-53
2021/07/22 06:19:37;;;;;;;;;;;;;;;28.08;38.69;97882.19;5031392;28;1918;-54
2021/07/22 06:22:02;;;;;;;;;;;;;;;28.27;38.20;97883.28;5031641;28;1236;-53
2021/07/22 06:24:28;;;;;;;;;;;;;;;28.09;38.79;97881.22;5028402;28;1930;-52
2021/07/22 06:26:53;;;;;;;;;;;;;;;28.24;38.40;97880.91;5032431;28;1736;-53
2021/07/22 06:29:18;;;;;;;;;;;;;;;28.09;38.76;97877.72;5031507;28;1372;-53
2021/07/22 06:31:43;;;;;;;;;;;;;;;28.18;38.46;97886.72;5032834;28;1184;-52
2021/07/22 06:34:08;;;;;;;;;;;;;;;28.14;38.42;97887.97;5030461;28;1557;-52
2021/07/22 06:36:34;;;;;;;;;;;;;;;28.16;38.28;97878.88;5031727;28;1462;-53
2021/07/22 06:38:59;;;;;;;;;;;;;;;28.19;38.36;97883.09;5053161;23;1558;-92
2021/07/22 06:41:24;;;;;;;;;;;;;;;28.19;38.47;97883.91;5039220;28;1061;-92
2021/07/22 06:43:49;;;;;;;;;;;;;;;28.12;38.56;97885.41;5038965;28;1910;-92
2021/07/22 06:46:14;;;;;;;;;;;;;;;28.03;38.50;97879.06;5025696;28;1248;-91
2021/07/22 06:48:40;;;;;;;;;;;;;;;28.00;38.91;97879.34;5046411;28;929;-92
2021/07/22 06:51:06;;;;;;;;;;;;;;;28.11;38.71;97878.44;5051052;28;1073;-91
2021/07/22 06:53:31;;;;;;;;;;;;;;;28.13;38.54;97875.66;5019383;28;1196;-92
2021/07/22 06:55:57;;;;;;;;;;;;;;;28.16;38.51;97875.41;5019065;28;1165;-92
2021/07/22 06:58:22;;;;;;;;;;;;;;;28.09;38.53;97875.06;5035434;28;1655;-92
2021/07/22 07:00:47;;;;;;;;;;;;;;;28.19;38.34;97861.88;5035798;28;1256;-92
2021/07/22 07:03:13;;;;;;;;;;;;;;;28.18;38.37;97876.94;5018688;28;1902;-92
2021/07/22 07:05:38;;;;;;;;;;;;;;;28.06;38.44;97873.53;5019213;28;1268;-92
2021/07/22 07:08:03;;;;;;;;;;;;;;;28.19;38.25;97873.31;5035359;28;1559;-92
2021/07/22 07:10:28;;;;;;;;;;;;;;;28.21;38.11;97875.88;5018896;28;1269;-91
2021/07/22 07:12:54;;;;;;;;;;;;;;;28.21;38.42;97868.75;5015915;28;1487;-91
2021/07/22 07:15:19;;;;;;;;;;;;;;;28.15;38.40;97876.38;4999394;28;1244;-91
2021/07/22 07:17:45;;;;;;;;;;;;;;;28.07;38.62;97877.03;5020013;28;1045;-92
2021/07/22 07:20:10;;;;;;;;;;;;;;;28.05;38.90;97873.66;5015855;28;1338;-92
2021/07/22 07:22:35;;;;;;;;;;;;;;;28.10;38.42;97882.88;5015239;28;1902;-92
2021/07/22 07:25:00;;;;;;;;;;;;;;;28.15;38.36;97877.22;5002859;28;2019;-91
2021/07/22 07:27:25;;;;;;;;;;;;;;;28.05;38.40;97873.66;5035178;28;1069;-92
2021/07/22 07:29:51;;;;;;;;;;;;;;;28.24;38.41;97865.81;5018640;28;1268;-92
2021/07/22 07:32:16;;;;;;;;;;;;;;;28.14;38.62;97866.75;5018482;28;1266;-92
2021/07/22 07:34:41;;;;;;;;;;;;;;;28.05;38.84;97861.25;5044305;28;1366;-92
2021/07/22 07:37:06;;;;;;;;;;;;;;;27.99;38.85;97867.06;5036189;28;1177;-92
2021/07/22 07:39:34;;;;;;;;;;;;;;;28.00;38.96;97863.44;5036194;28;1081;-92
2021/07/22 07:41:59;;;;;;;;;;;;;;;28.03;38.50;97862.31;5016617;28;1550;-92
2021/07/22 07:44:24;;;;;;;;;;;;;;;28.08;38.64;97862.78;5018161;28;1906;-92
2021/07/22 07:46:49;;;;;;;;;;;;;;;28.13;38.50;97867.72;5038466;28;1201;-92
2021/07/22 07:49:15;;;;;;;;;;;;;;;28.21;38.25;97857.31;5017950;28;1401;-92
2021/07/22 07:51:40;;;;;;;;;;;;;;;28.05;38.42;97858.59;5018313;28;1073;-92
2021/07/22 07:54:05;;;;;;;;;;;;;;;28.16;38.39;97857.69;5017756;28;1271;-92
2021/07/22 07:56:30;;;;;;;;;;;;;;;28.06;38.64;97862.91;5017218;28;1205;-92
2021/07/22 07:58:55;;;;;;;;;;;;;;;28.22;38.16;97858.97;5017827;28;1992;-92
2021/07/22 08:01:25;;;;;;;;;;;;;;;28.18;38.36;97858.38;5017841;28;1578;-92
2021/07/22 08:03:50;;;;;;;;;;;;;;;28.14;38.54;97854.31;5031098;28;1910;-92
2021/07/22 08:06:16;;;;;;;;;;;;;;;28.09;38.77;97851.22;5001493;28;1204;-92
2021/07/22 08:08:42;;;;;;;;;;;;;;;28.12;38.86;97853.59;5035571;28;966;-92
2021/07/22 08:11:07;;;;;;;;;;;;;;;28.10;38.63;97856.38;5001813;28;1272;-92
2021/07/22 08:13:32;;;;;;;;;;;;;;;28.19;38.11;97848.59;5001322;28;2015;-92
2021/07/22 08:15:57;;;;;;;;;;;;;;;28.09;38.70;97848.56;5035643;28;1259;-92
2021/07/22 08:18:23;;;;;;;;;;;;;;;28.36;38.28;97843.59;5034033;28;1898;-91
2021/07/22 08:20:48;;;;;;;;;;;;;;;28.13;38.64;97847.34;5034025;28;985;-92
2021/07/22 08:23:13;;;;;;;;;;;;;;;27.96;38.79;97843.44;5017356;28;1911;-92
2021/07/22 08:25:38;;;;;;;;;;;;;;;28.05;38.90;97842.69;5033960;28;1923;-92
2021/07/22 08:28:04;;;;;;;;;;;;;;;28.15;38.54;97847.19;5017725;28;1334;-92
2021/07/22 08:30:29;;;;;;;;;;;;;;;28.04;38.86;97845.44;5025663;28;1665;-92
2021/07/22 08:32:54;;;;;;;;;;;;;;;28.24;38.04;97843.75;5017923;28;1297;-92
2021/07/22 08:35:19;;;;;;;;;;;;;;;28.02;38.58;97840.28;5017422;28;1299;-92
2021/07/22 08:37:45;;;;;;;;;;;;;;;27.99;38.88;97837.06;5019080;28;1985;-92
2021/07/22 08:40:11;;;;;;;;;;;;;;;28.08;38.60;97841.56;5051051;28;1192;-92
2021/07/22 08:42:36;;;;;;;;;;;;;;;28.14;38.73;97842.88;5037049;28;1910;-92
2021/07/22 08:45:02;;;;;;;;;;;;;;;28.12;38.48;97840.31;5044650;28;1928;-92
2021/07/22 08:47:27;;;;;;;;;;;;;;;28.13;38.43;97847.34;5001251;28;1340;-92
2021/07/22 08:49:53;;;;;;;;;;;;;;;28.04;38.89;97832.19;5014243;28;1038;-92
2021/07/22 08:52:18;;;;;;;;;;;;;;;28.12;38.46;97835.03;5010129;28;1446;-92
2021/07/22 08:54:43;;;;;;;;;;;;;;;28.15;38.66;97831.28;5031901;28;1707;-92
2021/07/22 08:57:09;;;;;;;;;;;;;;;28.16;38.64;97835.63;5033295;28;967;-91
2021/07/22 08:59:34;;;;;;;;;;;;;;;28.07;38.86;97826.66;5033538;28;1347;-92
2021/07/22 09:01:59;;;;;;;;;;;;;;;28.07;38.67;97830.13;5034619;28;1140;-92
2021/07/22 09:04:25;;;;;;;;;;;;;;;28.23;38.19;97831.47;5016842;28;1971;-92
2021/07/22 09:06:50;;;;;;;;;;;;;;;28.02;38.65;97827.03;5033088;28;2104;-92
2021/07/22 09:09:16;;;;;;;;;;;;;;;28.02;38.97;97828.84;5033556;28;923;-92
2021/07/22 09:11:53;;;;;;;;;;;;;;;28.08;38.89;97831.81;5033477;28;1141;-92
2021/07/22 09:14:19;;;;;;;;;;;;;;;28.06;38.71;97820.50;5015771;28;1799;-92
2021/07/22 09:16:44;;;;;;;;;;;;;;;28.13;38.86;97826.13;5013693;28;1136;-91
2021/07/22 09:19:29;;;;;;;;;;;;;;;28.19;38.64;97830.03;4997007;28;1295;-92
2021/07/22 09:21:55;;;;;;;;;;;;;;;28.17;38.79;97818.75;5013833;28;888;-92
2021/07/22 09:24:20;;;;;;;;;;;;;;;28.05;38.95;97832.09;4996966;28;1902;-92
2021/07/22 09:26:50;;;;;;;;;;;;;;;28.15;38.57;97823.34;5035646;28;1039;-92
2021/07/22 09:29:15;;;;;;;;;;;;;;;28.19;38.57;97816.78;5053554;28;871;-92
2021/07/22 09:31:42;;;;;;;;;;;;;;;28.12;38.59;97823.56;5045111;28;1225;-92
2021/07/22 09:34:17;;;;;;;;;;;;;;;28.21;38.61;97821.00;5020359;28;1455;-92
2021/07/22 09:36:42;;;;;;;;;;;;;;;28.21;38.59;97812.22;5005139;28;1237;-92
2021/07/22 09:39:27;;;;;;;;;;;;;;;28.21;38.54;97823.66;5033873;28;1605;-92
2021/07/22 09:41:57;;;;;;;;;;;;;;;28.16;38.77;97815.25;5036406;28;1222;-91
2021/07/22 09:44:35;;;;;;;;;;;;;;;28.09;38.55;97817.56;5036167;28;1983;-92
2021/07/22 09:47:00;;;;;;;;;;;;;;;28.13;38.54;97809.38;5028896;28;1323;-91
2021/07/22 09:49:29;;;;;;;;;;;;;;;28.02;39.09;97807.63;5016555;28;804;-92
2021/07/22 09:51:57;;;;;;;;;;;;;;;28.10;38.86;97807.81;5034154;28;788;-92
2021/07/22 09:54:23;;;;;;;;;;;;;;;28.17;38.59;97803.66;5033978;28;1259;-92
2021/07/22 09:56:51;;;;;;;;;;;;;;;28.18;38.78;97805.34;5002114;28;1384;-92
2021/07/22 09:59:16;;;;;;;;;;;;;;;28.21;38.64;97799.78;5040547;28;1339;-91
2021/07/22 10:01:44;;;;;;;;;;;;;;;28.20;38.42;97803.41;5016686;28;1037;-92
2021/07/22 10:04:09;;;;;;;;;;;;;;;28.15;38.72;97796.81;5016341;28;1906;-92
2021/07/22 10:06:34;;;;;;;;;;;;;;;28.29;38.44;97800.00;5033078;28;1263;-92
2021/07/22 10:08:59;;;;;;;;;;;;;;;28.31;38.29;97791.91;5017270;28;1228;-92
2021/07/22 10:11:25;;;;;;;;;;;;;;;28.19;38.60;97790.28;5032644;28;958;-92
2021/07/22 10:13:51;;;;;;;;;;;;;;;28.17;38.60;97789.56;5015979;28;1578;-92
2021/07/22 10:16:17;;;;;;;;;;;;;;;28.23;38.68;97787.22;5033875;28;902;-92
2021/07/22 10:18:46;;;;;;;;;;;;;;;28.27;38.67;97782.50;5034045;28;1066;-92
2021/07/22 10:21:11;;;;;;;;;;;;;;;28.21;38.70;97775.09;5003414;28;1220;-92
2021/07/22 10:23:36;;;;;;;;;;;;;;;28.31;38.20;97778.66;5010642;28;1910;-90
2021/07/22 10:26:02;;;;;;;;;;;;;;;28.30;38.48;97779.63;5000207;28;1273;-91
2021/07/22 10:28:27;;;;;;;;;;;;;;;28.27;38.20;97766.56;5020694;28;1293;-92
2021/07/22 10:30:52;;;;;;;;;;;;;;;28.17;38.63;97779.81;5019679;28;1545;-92
2021/07/22 10:33:18;;;;;;;;;;;;;;;28.21;38.69;97764.47;5019521;28;1083;-92
2021/07/22 10:35:43;;;;;;;;;;;;;;;28.18;38.60;97767.38;4999791;28;1208;-91
2021/07/22 10:38:20;;;;;;;;;;;;;;;28.28;38.17;97773.56;5012579;28;1296;-92
2021/07/22 10:40:57;;;;;;;;;;;;;;;28.21;38.43;97765.31;5048263;28;1176;-92
2021/07/22 10:43:41;;;;;;;;;;;;;;;28.14;38.81;97760.69;5056065;28;1965;-92
2021/07/22 10:46:16;;;;;;;;;;;;;;;28.13;38.71;97765.13;5043875;28;1421;-92
2021/07/22 10:48:42;;;;;;;;;;;;;;;28.16;38.77;97761.38;5019197;28;1337;-92
2021/07/22 10:51:08;;;;;;;;;;;;;;;28.21;38.48;97765.31;5015977;28;1321;-92
2021/07/22 10:53:36;;;;;;;;;;;;;;;28.17;38.62;97753.28;5013155;28;1240;-92
2021/07/22 10:56:02;;;;;;;;;;;;;;;28.32;38.33;97762.59;5043353;28;1276;-91
2021/07/22 10:58:30;;;;;;;;;;;;;;;28.17;38.76;97757.75;5019486;28;1312;-92
2021/07/22 11:00:56;;;;;;;;;;;;;;;28.12;38.74;97754.63;5037345;28;970;-91
2021/07/22 11:03:37;;;;;;;;;;;;;;;28.21;38.63;97749.41;5019035;28;1963;-92
2021/07/22 11:06:08;;;;;;;;;;;;;;;28.11;38.50;97756.47;5036098;28;1189;-91
2021/07/22 11:08:36;;;;;;;;;;;;;;;28.20;38.75;97753.03;5035416;28;1137;-92
2021/07/22 11:11:08;;;;;;;;;;;;;;;28.16;38.50;97748.94;5019673;28;1302;-92
2021/07/22 11:13:37;;;;;;;;;;;;;;;28.25;38.63;97740.19;5018767;28;1912;-92
2021/07/22 11:16:02;;;;;;;;;;;;;;;28.08;38.80;97748.78;5035097;28;1366;-91
2021/07/22 11:18:39;;;;;;;;;;;;;;;28.19;38.37;97746.03;5036725;28;1859;-92
2021/07/22 11:21:04;;;;;;;;;;;;;;;28.19;38.56;97738.06;5018468;28;1213;-92
2021/07/22 11:23:30;;;;;;;;;;;;;;;28.26;38.31;97730.44;5002058;28;1906;-91
2021/07/22 11:25:55;;;;;;;;;;;;;;;28.29;38.51;97739.00;5018786;28;1820;-92
2021/07/22 11:28:22;;;;;;;;;;;;;;;28.21;38.58;97737.97;5035042;28;922;-92
2021/07/22 11:31:04;;;;;;;;;;;;;;;28.24;38.36;97729.72;5018219;28;1326;-92
2021/07/22 11:33:36;;;;;;;;;;;;;;;28.21;38.69;97736.16;5002167;28;1364;-92
2021/07/22 11:36:02;;;;;;;;;;;;;;;28.21;38.80;97730.00;5034831;28;1371;-92
2021/07/22 11:38:27;;;;;;;;;;;;;;;28.28;38.45;97736.44;5022246;28;1458;-91
2021/07/22 11:40:53;;;;;;;;;;;;;;;28.22;38.43;97731.69;5018166;28;1169;-92
2021/07/22 11:43:31;;;;;;;;;;;;;;;28.18;38.57;97731.09;5034732;28;1914;-92
2021/07/22 11:45:56;;;;;;;;;;;;;;;28.23;38.66;97722.75;5001899;28;1303;-91
2021/07/22 11:48:24;;;;;;;;;;;;;;;28.27;38.52;97724.97;5034657;28;955;-92
2021/07/22 11:51:03;;;;;;;;;;;;;;;28.28;38.32;97720.50;5018078;28;1209;-92
2021/07/22 11:53:28;;;;;;;;;;;;;;;28.16;38.66;97708.34;5034519;28;1324;-92
2021/07/22 11:55:54;;;;;;;;;;;;;;;28.29;38.53;97715.13;5018036;28;1617;-92
2021/07/22 11:58:19;;;;;;;;;;;;;;;28.26;38.52;97710.03;5001732;28;1335;-92
2021/07/22 12:00:44;;;;;;;;;;;;;;;28.31;38.54;97712.34;5017910;28;982;-92
2021/07/22 12:03:10;;;;;;;;;;;;;;;28.23;38.50;97712.13;5036898;28;1964;-92
2021/07/22 12:05:35;;;;;;;;;;;;;;;28.31;38.24;97707.03;5015423;28;1891;-90
2021/07/22 12:08:18;;;;;;;;;;;;;;;28.33;38.53;97711.22;5034165;28;995;-89
2021/07/22 12:10:44;;;;;;;;;;;;;;;28.35;38.37;97705.78;5035376;28;891;-90
2021/07/22 12:13:10;;;;;;;;;;;;;;;28.18;38.43;97703.72;5045992;28;1108;-90
2021/07/22 12:15:35;;;;;;;;;;;;;;;28.18;38.51;97701.91;5035103;28;1286;-90
2021/07/22 12:18:00;;;;;;;;;;;;;;;28.30;38.60;97698.25;5033808;28;1010;-90
2021/07/22 12:20:26;;;;;;;;;;;;;;;28.30;38.24;97694.75;5017345;28;986;-91
2021/07/22 12:22:51;;;;;;;;;;;;;;;28.28;38.36;97694.00;5017097;28;1902;-91
2021/07/22 12:25:16;;;;;;;;;;;;;;;28.21;38.77;97693.72;5017161;28;1309;-91
2021/07/22 12:27:43;;;;;;;;;;;;;;;28.24;38.35;97684.66;5017514;28;1141;-91
2021/07/22 12:30:24;;;;;;;;;;;;;;;28.26;38.72;97685.34;5017155;28;832;-90
2021/07/22 12:32:50;;;;;;;;;;;;;;;28.22;38.48;97678.66;5040394;28;1081;-91
2021/07/22 12:35:28;;;;;;;;;;;;;;;28.09;39.13;97676.22;5017328;28;1330;-93
2021/07/22 12:37:55;;;;;;;;;;;;;;;28.56;38.15;97669.41;5037326;28;1486;-94
2021/07/22 12:40:32;;;;;;;;;;;;;;;28.64;38.10;97674.84;5047054;28;1582;-93
2021/07/22 12:42:58;;;;;;;;;;;;;;;29.12;37.52;97676.72;5041104;28;1898;-94
2021/07/22 12:45:23;;;;;;;;;;;;;;;29.07;37.70;97670.16;5016999;28;1283;-92
2021/07/22 12:47:48;;;;;;;;;;;;;;;29.06;37.72;97669.31;5017374;28;1186;-92
2021/07/22 12:50:30;;;;;;;;;;;;;;;29.07;37.20;97668.38;5018454;28;1296;-92
2021/07/22 12:52:59;;;;;;;;;;;;;;;29.07;37.33;97663.06;5008788;28;1610;-91